Latest Coastal Weather Observations for Cape Naturaliste

IDW60701

Issued at 1:33 pm WST Thursday 1 September 2016 (issued every 10 minutes, with the page automatically refreshed every 10 minutes)

About coastal observations | Map of coastal stations | Coastal observations for WA | Marine services | Other Formats
Station Details ID: 009519 Name: CAPE NATURALISTE Lat: -33.54 Lon: 115.02 Height: 109.0 m
Data from the previous 72 hours. | See also: Recent months at Cape Naturaliste
Date/Time
WST
Temp
°C
Wind Pressure Rain since
9am
mm
Weather Cloud Vis
km
Sea
Height
m
Swell
Dir  Spd
kts
Gust
kts
hPa Trend Height
m
Period
s
Dir
01/01:30pm 15.0 SW 10 14 1024.6 - 0.0 - - - - - - -
01/01:00pm 15.5 SW 9 13 1025.0 - 0.0 - - - - - - -
01/12:30pm 14.5 SSW 7 11 1025.4 - 0.0 - - - - - - -
01/12:00pm 14.2 SW 7 10 1025.7 - 0.0 - - - - - - -
01/11:30am 13.9 SW 6 11 1025.9 - 0.0 - - - - - - -
01/11:00am 13.7 SSW 7 10 1025.9 - 0.0 - - - - - - -
01/10:30am 14.7 SSE 5 9 1026.0 - 0.0 - - - - - - -
01/10:00am 14.4 SE 8 13 1026.0 - 0.0 - - - - - - -
01/09:30am 13.3 SE 9 12 1026.0 - 0.0 - - - - - - -
01/09:00am 12.8 SE 10 14 1025.9 - 0.6 - - - - - - -
01/08:30am 12.0 SE 9 13 1025.8 - 0.6 - - - - - - -
01/08:00am 11.5 SE 8 11 1025.7 - 0.6 - - - - - - -
01/07:30am 9.9 SSE 9 12 1025.6 - 0.6 - - - - - - -
01/07:00am 9.3 SSE 9 11 1025.2 - 0.6 - - - - - - -
01/06:30am 9.3 SE 9 11 1024.5 - 0.6 - - - - - - -
01/06:00am 9.1 SSE 11 14 1024.2 - 0.6 - - - - - - -
01/05:30am 9.0 SSE 10 14 1024.0 - 0.6 - - - - - - -
01/05:00am 9.6 SSE 9 12 1023.8 - 0.6 - - - - - - -
01/04:30am 10.2 S 10 13 1023.8 - 0.6 - - - - - - -
01/04:00am 10.4 S 12 16 1023.8 - 0.6 - - - - - - -
01/03:30am 10.2 S 11 16 1023.6 - 0.6 - - - - - - -
01/03:00am 10.4 SSE 12 16 1023.6 - 0.6 - - - - - - -
01/02:30am 10.2 SSE 11 14 1023.7 - 0.6 - - - - - - -
01/02:00am 10.1 S 11 13 1023.8 - 0.6 - - - - - - -
01/01:30am 10.2 S 11 14 1024.0 - 0.6 - - - - - - -
01/01:00am 9.3 S 12 15 1023.6 - 0.6 - - - - - - -
01/12:30am 9.9 S 11 14 1023.5 - 0.6 - - - - - - -
01/12:00am 9.1 S 13 17 1023.2 - 0.6 - - - - - - -
 
Date/Time
WST
Temp
°C
Wind Pressure Rain since
9am
mm
Weather Cloud Vis
km
Sea
Height
m
Swell
Dir  Spd
kts
Gust
kts
hPa Trend Height
m
Period
s
Dir
31/11:30pm 9.2 S 14 18 1022.8 - 0.6 - - - - - - -
31/11:00pm 9.7 SSE 13 17 1022.8 - 0.6 - - - - - - -
31/10:30pm 9.9 S 14 19 1022.8 - 0.6 - - - - - - -
31/10:00pm 9.2 S 16 21 1022.6 - 0.6 - - - - - - -
31/09:30pm 9.0 S 15 19 1022.3 - 0.6 - - - - - - -
31/09:00pm 9.1 S 17 25 1022.1 - 0.6 Recent precip. - - - - - -
31/08:30pm 9.6 S 15 22 1021.8 - 0.4 - - - - - - -
31/08:00pm 10.1 S 14 19 1021.6 - 0.2 - - - - - - -
31/07:30pm 10.4 S 15 19 1020.7 - 0.2 - - - - - - -
31/07:00pm 10.8 S 16 21 1019.9 - 0.2 - - - - - - -
31/06:30pm 11.0 S 16 21 1019.3 - 0.2 - - - - - - -
31/06:00pm 11.2 S 15 21 1018.8 - 0.2 - - - - - - -
31/05:30pm 12.0 S 15 21 1018.2 - 0.2 - - - - - - -
31/05:02pm 12.3 SSW 18 28 1017.5 - 0.2 - - - - - - -
31/05:00pm 12.3 SSW 19 28 1017.4 - 0.2 - - - - - - -
31/04:30pm 13.4 SSW 21 29 1016.8 - 0.2 - - - - - - -
31/04:18pm 14.2 S 15 25 1016.6 - 0.2 - - - - - - -
31/04:00pm 13.4 S 15 21 1016.3 - 0.2 - - - - - - -
31/03:40pm 14.8 S 19 29 1016.1 - 0.2 - - - - - - -
31/03:30pm 15.0 SSW 21 30 1015.8 - 0.2 - - - - - - -
31/03:00pm 14.6 SSW 21 28 1015.6 - 0.2 - - - - - - -
31/02:30pm 15.1 SSW 22 30 1015.1 - 0.2 - - - - - - -
31/02:00pm 15.0 SSW 22 29 1014.6 - 0.2 - - - - - - -
31/01:37pm 15.6 SSW 21 33 1014.3 - 0.2 - - - - - - -
31/01:30pm 15.6 SSW 21 29 1014.2 - 0.2 - - - - - - -
31/01:00pm 15.5 SSW 23 33 1014.0 - 0.2 - - - - - - -
31/12:34pm 15.2 SSW 22 32 1014.0 - 0.2 - - - - - - -
31/12:30pm 15.1 SSW 23 31 1014.0 - 0.2 - - - - - - -
31/12:09pm 15.0 SSW 23 33 1014.0 - 0.2 - - - - - - -
31/12:00pm 14.9 SSW 24 33 1013.9 - 0.2 - - - - - - -
31/11:50am 14.8 SSW 23 33 1014.0 - 0.2 - - - - - - -
31/11:30am 14.7 SSW 24 31 1013.9 - 0.2 - - - - - - -
31/11:00am 14.5 SSW 22 30 1013.9 - 0.2 - - - - - - -
31/10:30am 13.5 SSW 22 32 1013.5 - 0.2 - - - - - - -
31/10:01am 12.3 SSW 20 32 1013.3 - 0.2 - - - - - - -
31/10:00am 12.4 SSW 19 26 1013.4 - 0.2 - - - - - - -
31/09:30am 12.6 S 20 28 1012.9 - 0.0 - - - - - - -
31/09:00am 11.2 S 18 26 1012.6 - 9.6 Recent precip. - - - - - -
31/08:30am 11.0 S 17 23 1011.9 - 9.6 - - - - - - -
31/08:00am 11.1 SSW 20 28 1011.6 - 9.4 - - - - - - -
31/07:34am 11.3 SSW 18 28 1011.3 - 9.4 - - - - - - -
31/07:30am 11.6 SSW 18 26 1011.3 - 9.4 - - - - - - -
31/07:27am 11.4 SSW 20 30 1011.2 - 9.2 - - - - - - -
31/07:00am 11.1 SSW 16 22 1010.8 - 8.4 - - - - - - -
31/06:30am 12.0 SSW 15 21 1010.2 - 7.8 - - - - - - -
31/06:00am 11.6 SSW 14 20 1010.0 - 7.4 Rain - - - - - -
31/05:33am 11.7 SSW 15 25 1009.9 - 6.6 - - - - - - -
31/05:30am 11.5 SSW 16 25 1010.0 - 6.4 - - - - - - -
31/05:24am 11.5 SW 15 25 1009.9 - 6.2 - - - - - - -
31/05:00am 11.9 SW 14 19 1009.4 - 4.4 - - - - - - -
31/04:30am 12.6 WSW 15 19 1009.2 - 2.8 - - - - - - -
31/04:00am 12.7 WSW 18 23 1009.1 - 2.4 - - - - - - -
31/03:30am 13.1 W 16 20 1009.1 - 1.2 - - - - - - -
31/03:02am 13.8 WNW 15 25 1009.2 - 1.0 - - - - - - -
31/03:00am 13.7 WNW 14 18 1009.3 - 1.0 - - - - - - -
31/02:30am 13.3 WNW 15 21 1009.6 - 1.0 - - - - - - -
31/02:00am 13.1 NW 13 17 1009.9 - 1.0 - - - - - - -
31/01:30am 13.6 WNW 14 18 1010.4 - 1.0 - - - - - - -
31/01:00am 13.6 WNW 14 19 1010.7 - 1.0 - - - - - - -
31/12:30am 13.2 NW 15 21 1010.8 - 1.0 - - - - - - -
31/12:00am 12.9 NW 18 23 1010.8 - 1.0 - - - - - - -
 
Date/Time
WST
Temp
°C
Wind Pressure Rain since
9am
mm
Weather Cloud Vis
km
Sea
Height
m
Swell
Dir  Spd
kts
Gust
kts
hPa Trend Height
m
Period
s
Dir
30/11:30pm 12.8 NW 17 23 1010.9 - 1.0 - - - - - - -
30/11:00pm 12.9 NW 12 15 1011.2 - 1.0 - - - - - - -
30/10:30pm 13.7 NNW 14 20 1011.5 - 0.4 - - - - - - -
30/10:00pm 13.5 NNW 13 17 1011.9 - 0.4 - - - - - - -
30/09:30pm 12.8 NW 15 20 1012.2 - 0.4 - - - - - - -
30/09:01pm 12.6 NW 22 32 1012.8 - 0.4 - - - - - - -
30/09:00pm 12.6 NW 22 32 1012.9 - 0.4 Rain - - - - - -
30/08:55pm 14.5 NNW 19 32 1012.7 - 0.0 - - - - - - -
30/08:30pm 14.5 NNW 12 18 1012.7 - 0.0 - - - - - - -
30/08:00pm 14.6 NNW 13 17 1013.0 - 0.0 - - - - - - -
30/07:30pm 14.3 NNW 12 16 1013.0 - 0.0 - - - - - - -
30/07:00pm 13.9 NNW 12 15 1013.0 - 0.0 - - - - - - -
30/06:30pm 14.0 NNW 11 15 1013.0 - 0.0 - - - - - - -
30/06:00pm 14.0 N 13 16 1013.0 - 0.0 - - - - - - -
30/05:30pm 13.9 N 11 15 1013.1 - 0.0 - - - - - - -
30/05:00pm 14.3 NNW 11 15 1013.1 - 0.0 - - - - - - -
30/04:30pm 14.3 NW 12 16 1013.3 - 0.0 - - - - - - -
30/04:00pm 14.5 NW 13 17 1013.5 - 0.0 - - - - - - -
30/03:30pm 14.5 NW 12 16 1013.8 - 0.0 - - - - - - -
30/03:00pm 14.9 NNW 11 15 1014.0 - 0.0 - - - - - - -
30/02:30pm 14.7 NNW 11 15 1014.1 - 0.0 - - - - - - -
30/02:00pm 15.2 NNW 12 17 1014.1 - 0.0 - - - - - - -
30/01:30pm 14.9 NNW 13 18 1014.3 - 0.0 - - - - - - -
30/01:00pm 14.9 NNW 14 19 1014.7 - 0.0 - - - - - - -
30/12:30pm 15.4 NW 12 17 1015.2 - 0.0 - - - - - - -
30/12:00pm 14.7 NW 12 16 1015.6 - 0.0 - - - - - - -
30/11:30am 14.6 NW 11 17 1016.0 - 0.0 - - - - - - -
30/11:00am 15.1 NW 12 16 1016.3 - 0.0 - - - - - - -
30/10:30am 14.6 NW 12 16 1016.5 - 0.0 - - - - - - -
30/10:00am 15.6 NNW 8 12 1016.6 - 0.0 - - - - - - -
30/09:30am 13.8 NW 7 10 1016.8 - 0.0 - - - - - - -
30/09:00am 13.3 WNW 9 11 1016.8 - 0.0 - - - - - - -
30/08:30am 12.4 NW 6 8 1016.7 - 0.0 - - - - - - -
30/08:00am 11.8 WNW 6 7 1016.6 - 0.0 - - - - - - -
30/07:30am 11.2 NNW 3 4 1016.5 - 0.0 - - - - - - -
30/07:00am 10.4 ENE 5 7 1016.4 - 0.0 - - - - - - -
30/06:30am 9.9 ESE 6 7 1016.3 - 0.0 - - - - - - -
30/06:00am 9.4 SE 6 6 1016.3 - 0.0 - - - - - - -
30/05:30am 9.0 SE 6 6 1016.2 - 0.0 - - - - - - -
30/05:00am 8.7 ESE 6 7 1015.9 - 0.0 - - - - - - -
30/04:30am 9.2 ESE 5 6 1015.8 - 0.0 - - - - - - -
30/04:00am 9.6 SE 4 5 1015.8 - 0.0 - - - - - - -
30/03:30am 9.9 ESE 5 6 1015.9 - 0.0 - - - - - - -
30/03:00am 10.1 E 4 6 1016.1 - 0.0 - - - - - - -
30/02:30am 10.5 ENE 4 5 1016.3 - 0.0 - - - - - - -
30/02:00am 10.4 E 3 3 1016.6 - 0.0 - - - - - - -
30/01:30am 10.2 E 5 6 1016.7 - 0.0 - - - - - - -
30/01:00am 10.0 ESE 5 6 1017.0 - 0.0 - - - - - - -
30/12:30am 9.9 SE 5 5 1017.1 - 0.0 - - - - - - -
30/12:00am 9.7 SE 6 7 1017.1 - 0.0 - - - - - - -
 
Date/Time
WST
Temp
°C
Wind Pressure Rain since
9am
mm
Weather Cloud Vis
km
Sea
Height
m
Swell
Dir  Spd
kts
Gust
kts
hPa Trend Height
m
Period
s
Dir
29/11:30pm 9.2 SE 6 7 1017.2 - 0.0 - - - - - - -
29/11:00pm 10.0 SE 7 8 1017.3 - 0.0 - - - - - - -
29/10:30pm 10.3 SE 7 8 1017.6 - 0.0 - - - - - - -
29/10:00pm 10.5 SSE 7 8 1017.6 - 0.0 - - - - - - -
29/09:30pm 10.6 SE 7 8 1017.6 - 0.0 - - - - - - -
29/09:00pm 10.7 SSE 8 9 1017.6 - 0.0 - - - - - - -
29/08:30pm 11.0 SSE 7 8 1017.5 - 0.0 - - - - - - -
29/08:00pm 11.0 SSE 7 10 1017.4 - 0.0 - - - - - - -
29/07:30pm 11.0 S 8 10 1017.1 - 0.0 - - - - - - -
29/07:00pm 11.2 S 10 11 1017.0 - 0.0 - - - - - - -
29/06:30pm 11.4 S 8 10 1016.7 - 0.0 - - - - - - -
29/06:00pm 12.1 S 10 13 1016.4 - 0.0 - - - - - - -
29/05:30pm 12.8 SSW 10 14 1016.2 - 0.0 - - - - - - -
29/05:00pm 13.5 SSW 13 17 1016.1 - 0.0 - - - - - - -
29/04:30pm 13.8 SSW 12 16 1015.9 - 0.0 - - - - - - -
29/04:00pm 13.5 SSW 11 16 1015.8 - 0.0 - - - - - - -
29/03:30pm 13.6 SSW 12 16 1015.7 - 0.0 - - - - - - -
29/03:00pm 14.6 SSW 12 18 1015.6 - 0.0 - - - - - - -
29/02:30pm 14.7 SSW 13 17 1015.6 - 0.0 - - - - - - -
29/02:00pm 14.5 SSW 11 15 1015.8 - 0.0 - - - - - - -

Other Formats:

Comma delimited format used in spreadsheet applications
http://www.bom.gov.au/fwo/IDW60701/IDW60701.94600.axf

JavaScript Object Notation format (JSON) in row-major order
http://www.bom.gov.au/fwo/IDW60701/IDW60701.94600.json